createdAt,value
2022-10-23T00:00:10.167Z,12.00
2022-10-23T00:04:14.146Z,11.90
2022-10-23T00:08:17.016Z,11.90
2022-10-23T00:12:21.252Z,11.90
2022-10-23T00:16:24.169Z,11.90
2022-10-23T00:20:26.983Z,11.90
2022-10-23T00:24:29.816Z,11.80
2022-10-23T00:28:34.030Z,11.80
2022-10-23T00:32:36.892Z,11.80
2022-10-23T00:36:40.437Z,11.80
2022-10-23T00:40:44.923Z,11.80
2022-10-23T00:45:12.835Z,11.80
2022-10-23T00:49:16.539Z,11.80
2022-10-23T00:53:20.711Z,11.80
2022-10-23T00:57:23.613Z,11.80
2022-10-23T01:01:28.072Z,11.80
2022-10-23T01:05:33.059Z,11.80
2022-10-23T01:09:38.966Z,11.70
2022-10-23T01:13:50.948Z,11.70
2022-10-23T01:17:57.376Z,11.70
2022-10-23T01:22:07.167Z,11.70
2022-10-23T01:26:20.067Z,11.80
2022-10-23T01:30:24.313Z,11.80
2022-10-23T01:34:30.148Z,11.80
2022-10-23T01:38:36.866Z,11.80
2022-10-23T01:42:42.407Z,11.80
2022-10-23T01:46:48.082Z,11.90
2022-10-23T01:50:51.078Z,11.90
2022-10-23T01:54:55.851Z,11.90
2022-10-23T01:58:59.585Z,11.80
2022-10-23T02:03:04.684Z,11.80
2022-10-23T02:07:07.655Z,11.80
2022-10-23T02:11:11.300Z,11.70
2022-10-23T02:15:15.874Z,11.70
2022-10-23T02:19:22.608Z,11.70
2022-10-23T02:23:30.437Z,11.70
2022-10-23T02:27:36.381Z,11.60
2022-10-23T02:31:39.246Z,11.60
2022-10-23T02:35:43.539Z,11.60
2022-10-23T02:39:46.525Z,11.60
2022-10-23T02:43:54.996Z,11.50
2022-10-23T02:48:01.627Z,11.50
2022-10-23T02:52:08.915Z,11.40
2022-10-23T02:56:14.046Z,11.40
2022-10-23T03:00:18.110Z,11.30
2022-10-23T03:04:22.367Z,11.30
2022-10-23T03:08:26.732Z,11.20
2022-10-23T03:12:29.575Z,11.20
2022-10-23T03:16:32.444Z,11.20
2022-10-23T03:20:35.280Z,11.10
2022-10-23T03:24:39.481Z,11.10
2022-10-23T03:28:42.460Z,11.10
2022-10-23T03:32:45.606Z,11.00
2022-10-23T03:36:48.624Z,11.00
2022-10-23T03:40:52.829Z,11.00
2022-10-23T03:44:55.648Z,10.90
2022-10-23T03:53:02.474Z,10.90
2022-10-23T03:57:06.704Z,10.80
2022-10-23T04:01:09.846Z,10.70
2022-10-23T04:05:12.733Z,10.70
2022-10-23T04:09:15.593Z,10.70
2022-10-23T04:13:19.816Z,10.60
2022-10-23T04:17:22.743Z,10.60
2022-10-23T04:21:25.638Z,10.50
2022-10-23T04:25:28.568Z,10.40
2022-10-23T04:29:33.173Z,10.40
2022-10-23T04:33:36.433Z,10.30
2022-10-23T04:37:39.380Z,10.30
2022-10-23T04:41:42.329Z,10.20
2022-10-23T04:45:46.619Z,10.20
2022-10-23T04:49:49.444Z,10.20
2022-10-23T04:53:52.279Z,10.20
2022-10-23T04:57:55.180Z,10.10
2022-10-23T05:01:59.422Z,10.10
2022-10-23T05:06:02.300Z,10.10
2022-10-23T05:10:05.233Z,10.10
2022-10-23T05:14:08.212Z,10.10
2022-10-23T05:18:13.318Z,10.10
2022-10-23T05:22:16.312Z,10.10
2022-10-23T05:26:19.204Z,10.10
2022-10-23T05:30:22.178Z,10.10
2022-10-23T05:34:27.534Z,10.10
2022-10-23T05:38:31.587Z,10.10
2022-10-23T05:42:36.148Z,10.10
2022-10-23T05:46:41.739Z,10.10
2022-10-23T05:50:45.948Z,10.10
2022-10-23T05:54:48.944Z,10.10
2022-10-23T05:58:51.821Z,10.00
2022-10-23T06:02:54.658Z,10.00
2022-10-23T06:06:58.845Z,10.00
2022-10-23T06:11:06.243Z,10.00
2022-10-23T06:15:10.344Z,10.00
2022-10-23T06:19:14.299Z,10.00
2022-10-23T06:23:18.511Z,10.00
2022-10-23T06:27:21.362Z,10.00
2022-10-23T06:31:26.908Z,10.00
2022-10-23T06:35:29.807Z,10.10
2022-10-23T06:39:36.033Z,10.10
2022-10-23T06:43:38.881Z,10.20
2022-10-23T06:47:41.909Z,10.20
2022-10-23T06:51:45.174Z,10.30
2022-10-23T06:55:52.896Z,10.40
2022-10-23T06:59:58.838Z,10.40
2022-10-23T07:04:01.735Z,10.50
2022-10-23T07:08:05.934Z,10.60
2022-10-23T07:12:10.202Z,10.70
2022-10-23T07:16:13.684Z,10.80
2022-10-23T07:20:16.580Z,10.80
2022-10-23T07:24:19.404Z,10.90
2022-10-23T07:28:23.636Z,10.90
2022-10-23T07:32:28.212Z,11.00
2022-10-23T07:36:31.055Z,11.00
2022-10-23T07:40:33.914Z,11.10
2022-10-23T07:44:38.127Z,11.20
2022-10-23T07:48:41.560Z,11.30
2022-10-23T07:52:44.616Z,11.40
2022-10-23T07:56:48.080Z,11.50
2022-10-23T08:00:58.675Z,11.60
2022-10-23T08:05:01.770Z,11.70
2022-10-23T08:09:06.558Z,11.90
2022-10-23T08:13:12.589Z,12.00
2022-10-23T08:17:16.848Z,12.20
2022-10-23T08:21:19.981Z,12.40
2022-10-23T08:25:24.995Z,12.50
2022-10-23T08:33:58.336Z,12.80
2022-10-23T08:38:01.241Z,13.00
2022-10-23T08:42:04.476Z,13.20
2022-10-23T08:46:09.517Z,13.40
2022-10-23T08:50:16.025Z,13.50
2022-10-23T08:54:20.845Z,13.60
2022-10-23T08:58:26.536Z,13.70
2022-10-23T09:02:31.657Z,13.90
2022-10-23T09:06:40.705Z,14.00
2022-10-23T09:10:51.539Z,14.10
2022-10-23T09:15:03.025Z,14.40
2022-10-23T09:19:12.201Z,14.40
2022-10-23T09:23:18.366Z,14.70
2022-10-23T09:27:21.233Z,14.70
2022-10-23T09:31:24.117Z,15.00
2022-10-23T09:35:28.598Z,15.00
2022-10-23T09:39:34.236Z,15.10
2022-10-23T09:43:38.193Z,15.10
2022-10-23T09:47:41.451Z,15.30
2022-10-23T09:51:50.490Z,15.10
2022-10-23T09:55:56.662Z,15.50
2022-10-23T10:00:01.036Z,15.70
2022-10-23T10:04:03.934Z,15.70
2022-10-23T10:08:11.474Z,15.80
2022-10-23T10:12:31.376Z,15.90
2022-10-23T12:30:35.359Z,20.30
2022-10-23T12:34:44.724Z,20.30
2022-10-23T12:38:48.444Z,20.20
2022-10-23T12:42:52.747Z,20.10
2022-10-23T12:46:57.706Z,20.00
2022-10-23T12:51:00.514Z,19.80
2022-10-23T12:55:12.612Z,19.70
2022-10-23T12:59:16.968Z,19.60
2022-10-23T13:03:21.716Z,19.40
2022-10-23T13:07:26.469Z,19.30
2022-10-23T13:11:29.583Z,19.20
2022-10-23T13:15:38.581Z,19.20
2022-10-23T13:19:42.883Z,19.10
2022-10-23T13:23:45.981Z,19.10
2022-10-23T13:27:48.869Z,19.00
2022-10-23T13:31:52.191Z,19.00
2022-10-23T13:36:00.047Z,18.90
2022-10-23T13:40:03.386Z,18.90
2022-10-23T13:44:06.386Z,18.80
2022-10-23T13:48:13.605Z,18.80
2022-10-23T13:52:20.095Z,18.80
2022-10-23T13:56:23.556Z,18.70
2022-10-23T14:00:26.388Z,18.70
2022-10-23T14:04:29.286Z,18.70
2022-10-23T14:08:33.514Z,18.70
2022-10-23T14:12:39.970Z,18.70
2022-10-23T14:16:42.867Z,18.70
2022-10-23T14:20:45.686Z,18.70
2022-10-23T14:24:50.001Z,18.70
2022-10-23T14:28:53.764Z,18.60
2022-10-23T14:32:56.634Z,18.60
2022-10-23T14:37:14.909Z,18.60
2022-10-23T14:41:19.335Z,18.50
2022-10-23T14:45:22.167Z,18.50
2022-10-23T14:49:25.016Z,18.40
2022-10-23T14:53:27.859Z,18.40
2022-10-23T14:57:32.051Z,18.40
2022-10-23T15:01:36.401Z,18.40
2022-10-23T15:05:42.111Z,18.40
2022-10-23T15:09:44.951Z,18.40
2022-10-23T15:13:49.198Z,18.40
2022-10-23T15:17:52.057Z,18.40
2022-10-23T15:22:01.004Z,18.30
2022-10-23T15:26:05.875Z,18.30
2022-10-23T15:30:11.145Z,18.20
2022-10-23T15:34:16.162Z,18.20
2022-10-23T15:38:19.136Z,18.20
2022-10-23T15:42:21.983Z,18.10
2022-10-23T15:46:26.207Z,18.10
2022-10-23T15:50:29.073Z,18.00
2022-10-23T15:54:33.148Z,18.00
2022-10-23T15:58:36.235Z,18.00
2022-10-23T16:02:40.854Z,17.90
2022-10-23T16:06:43.963Z,17.90
2022-10-23T16:10:46.812Z,17.80
2022-10-23T16:14:49.783Z,17.80
2022-10-23T16:18:55.375Z,17.80
2022-10-23T16:22:58.252Z,17.70
2022-10-23T16:27:01.888Z,17.60
2022-10-23T16:31:08.890Z,17.60
2022-10-23T16:35:13.264Z,17.50
2022-10-23T16:39:17.196Z,17.50
2022-10-23T16:43:20.129Z,17.40
2022-10-23T16:47:22.967Z,17.40
2022-10-23T16:51:27.866Z,17.30
2022-10-23T16:55:30.706Z,17.30
2022-10-23T16:59:33.536Z,17.20
2022-10-23T17:03:37.340Z,17.10
2022-10-23T17:07:41.741Z,17.10
2022-10-23T17:11:45.531Z,17.00
2022-10-23T17:15:48.345Z,17.00
2022-10-23T17:19:51.161Z,16.90
2022-10-23T17:23:55.402Z,16.90
2022-10-23T17:27:58.286Z,16.80
2022-10-23T17:32:01.278Z,16.80
2022-10-23T17:36:04.228Z,16.90
2022-10-23T17:40:09.134Z,16.90
2022-10-23T17:44:12.125Z,16.90
2022-10-23T17:48:16.818Z,17.00
2022-10-23T17:52:19.721Z,17.00
2022-10-23T17:56:24.743Z,17.00
2022-10-23T18:00:27.675Z,17.00
2022-10-23T18:04:30.547Z,17.00
2022-10-23T18:08:33.408Z,17.00
2022-10-23T18:12:37.664Z,17.00
2022-10-23T18:16:40.810Z,16.90
2022-10-23T18:20:43.637Z,16.90
2022-10-23T18:24:46.481Z,16.90
2022-10-23T18:28:51.679Z,16.80
2022-10-23T18:32:56.501Z,16.80
2022-10-23T18:37:00.626Z,16.80
2022-10-23T18:41:03.538Z,16.70
2022-10-23T18:45:08.512Z,16.70
2022-10-23T18:49:11.358Z,16.70
2022-10-23T18:53:14.195Z,16.70
2022-10-23T18:57:17.067Z,16.70
2022-10-23T19:01:22.099Z,16.70
2022-10-23T19:05:24.999Z,16.70
2022-10-23T19:09:27.844Z,16.60
2022-10-23T19:13:35.286Z,16.70
2022-10-23T19:17:42.835Z,16.60
2022-10-23T19:21:45.941Z,16.60
2022-10-23T19:25:48.957Z,16.60
2022-10-23T19:29:52.798Z,16.60
2022-10-23T19:33:57.025Z,16.60
2022-10-23T19:37:59.864Z,16.60
2022-10-23T19:42:02.729Z,16.60
2022-10-23T19:46:09.343Z,16.60
2022-10-23T19:50:16.475Z,16.60
2022-10-23T19:54:19.517Z,16.50
2022-10-23T19:58:22.356Z,16.50
2022-10-23T20:02:25.417Z,16.40
2022-10-23T20:06:30.419Z,16.40
2022-10-23T20:10:33.250Z,16.40
2022-10-23T20:14:36.108Z,16.30
2022-10-23T20:18:38.986Z,16.30
2022-10-23T20:22:44.166Z,16.30
2022-10-23T20:26:48.462Z,16.20
2022-10-23T20:30:51.304Z,16.20
2022-10-23T20:34:54.434Z,16.20
2022-10-23T20:38:59.461Z,16.20
2022-10-23T20:43:02.444Z,16.20
2022-10-23T20:47:05.495Z,16.10
2022-10-23T20:51:09.176Z,16.10
2022-10-23T20:55:13.476Z,16.10
2022-10-23T20:59:20.687Z,16.10
2022-10-23T21:03:24.121Z,16.10
2022-10-23T21:07:27.256Z,16.00
2022-10-23T21:11:31.854Z,16.00
2022-10-23T21:15:34.753Z,16.00
2022-10-23T21:19:39.794Z,15.90
2022-10-23T21:23:42.817Z,15.90
2022-10-23T21:27:47.352Z,15.90
2022-10-23T21:31:53.937Z,15.80
2022-10-23T21:35:58.550Z,15.80
2022-10-23T21:40:08.317Z,15.70
2022-10-23T21:44:13.535Z,15.70
2022-10-23T21:48:16.388Z,15.70
2022-10-23T21:52:19.914Z,15.60
2022-10-23T21:56:28.014Z,15.60
2022-10-23T22:00:32.285Z,15.60
2022-10-23T22:04:35.138Z,15.50
2022-10-23T22:08:37.981Z,15.50
2022-10-23T22:12:40.873Z,15.50
2022-10-23T22:16:45.115Z,15.50
2022-10-23T22:20:47.966Z,15.50
2022-10-23T22:24:50.896Z,15.50
2022-10-23T22:28:55.003Z,15.50
2022-10-23T22:32:59.216Z,15.50
2022-10-23T22:37:02.047Z,15.60
2022-10-23T22:41:05.307Z,15.60
2022-10-23T22:45:08.976Z,15.60
2022-10-23T22:49:13.183Z,15.60
2022-10-23T22:53:16.774Z,15.60
2022-10-23T22:57:19.668Z,15.70
2022-10-23T23:01:24.000Z,15.70
2022-10-23T23:05:28.423Z,15.70
2022-10-23T23:09:31.262Z,15.70
2022-10-23T23:13:34.460Z,15.80
2022-10-23T23:17:37.296Z,15.80
2022-10-23T23:21:41.533Z,15.90
2022-10-23T23:25:44.892Z,15.80
2022-10-23T23:29:47.765Z,15.90
2022-10-23T23:33:50.892Z,15.90
2022-10-23T23:37:55.086Z,15.90
2022-10-23T23:41:57.973Z,15.90
2022-10-23T23:46:00.777Z,15.90
2022-10-23T23:50:04.044Z,15.90
2022-10-23T23:54:08.302Z,15.90
2022-10-23T23:58:11.314Z,15.90
